sensor_id;sensor_type;location;lat;lon;timestamp;temperature;humidity
33699;DHT22;20032;52.436;13.312;2024-01-15T00:02:20;2.60;99.90
33699;DHT22;20032;52.436;13.312;2024-01-15T00:04:45;2.50;99.90
33699;DHT22;20032;52.436;13.312;2024-01-15T00:07:11;2.50;99.90
33699;DHT22;20032;52.436;13.312;2024-01-15T00:09:36;2.40;99.90
33699;DHT22;20032;52.436;13.312;2024-01-15T00:12:02;2.40;99.90
33699;DHT22;20032;52.436;13.312;2024-01-15T00:14:28;2.40;99.90
33699;DHT22;20032;52.436;13.312;2024-01-15T00:16:54;2.40;99.90
33699;DHT22;20032;52.436;13.312;2024-01-15T00:19:21;2.30;99.90
33699;DHT22;20032;52.436;13.312;2024-01-15T00:21:46;2.30;99.90
33699;DHT22;20032;52.436;13.312;2024-01-15T00:24:12;2.40;99.90
33699;DHT22;20032;52.436;13.312;2024-01-15T00:26:38;2.40;99.90
33699;DHT22;20032;52.436;13.312;2024-01-15T00:29:03;2.40;99.90
33699;DHT22;20032;52.436;13.312;2024-01-15T00:31:29;2.40;99.90
33699;DHT22;20032;52.436;13.312;2024-01-15T00:33:55;2.40;99.90
33699;DHT22;20032;52.436;13.312;2024-01-15T00:36:21;2.40;99.90
33699;DHT22;20032;52.436;13.312;2024-01-15T00:38:46;2.40;99.90
33699;DHT22;20032;52.436;13.312;2024-01-15T00:41:13;2.40;99.90
33699;DHT22;20032;52.436;13.312;2024-01-15T00:43:38;2.40;99.90
33699;DHT22;20032;52.436;13.312;2024-01-15T00:46:04;2.40;99.90
33699;DHT22;20032;52.436;13.312;2024-01-15T00:48:30;2.40;99.90
33699;DHT22;20032;52.436;13.312;2024-01-15T00:50:56;2.50;99.90
33699;DHT22;20032;52.436;13.312;2024-01-15T00:53:21;2.50;99.90
33699;DHT22;20032;52.436;13.312;2024-01-15T00:55:48;2.60;99.90
33699;DHT22;20032;52.436;13.312;2024-01-15T00:58:14;2.60;99.90
33699;DHT22;20032;52.436;13.312;2024-01-15T01:00:39;2.60;99.90
33699;DHT22;20032;52.436;13.312;2024-01-15T01:03:05;2.60;99.90
33699;DHT22;20032;52.436;13.312;2024-01-15T01:05:30;2.60;99.90
33699;DHT22;20032;52.436;13.312;2024-01-15T01:07:57;2.60;99.90
33699;DHT22;20032;52.436;13.312;2024-01-15T01:10:22;2.60;99.90
33699;DHT22;20032;52.436;13.312;2024-01-15T01:12:47;2.60;99.90
33699;DHT22;20032;52.436;13.312;2024-01-15T01:15:13;2.60;99.90
33699;DHT22;20032;52.436;13.312;2024-01-15T01:17:38;2.50;99.90
33699;DHT22;20032;52.436;13.312;2024-01-15T01:20:04;2.50;99.90
33699;DHT22;20032;52.436;13.312;2024-01-15T01:22:31;2.60;99.90
33699;DHT22;20032;52.436;13.312;2024-01-15T01:24:57;2.50;99.90
33699;DHT22;20032;52.436;13.312;2024-01-15T01:27:22;2.40;99.90
33699;DHT22;20032;52.436;13.312;2024-01-15T01:29:48;2.40;99.90
33699;DHT22;20032;52.436;13.312;2024-01-15T01:32:13;2.40;99.90
33699;DHT22;20032;52.436;13.312;2024-01-15T01:34:40;2.30;99.90
33699;DHT22;20032;52.436;13.312;2024-01-15T01:37:08;2.30;99.90
33699;DHT22;20032;52.436;13.312;2024-01-15T01:39:33;2.20;99.90
33699;DHT22;20032;52.436;13.312;2024-01-15T01:41:59;2.20;99.90
33699;DHT22;20032;52.436;13.312;2024-01-15T01:44:24;2.20;99.90
33699;DHT22;20032;52.436;13.312;2024-01-15T01:46:50;2.20;99.90
33699;DHT22;20032;52.436;13.312;2024-01-15T01:49:15;2.10;99.90
33699;DHT22;20032;52.436;13.312;2024-01-15T01:51:41;2.10;99.90
33699;DHT22;20032;52.436;13.312;2024-01-15T01:54:08;2.10;99.90
33699;DHT22;20032;52.436;13.312;2024-01-15T01:56:34;2.10;99.90
33699;DHT22;20032;52.436;13.312;2024-01-15T01:59:01;2.10;99.90
33699;DHT22;20032;52.436;13.312;2024-01-15T02:01:28;2.10;99.90
33699;DHT22;20032;52.436;13.312;2024-01-15T02:03:54;2.10;99.90
33699;DHT22;20032;52.436;13.312;2024-01-15T02:06:22;2.10;99.90
33699;DHT22;20032;52.436;13.312;2024-01-15T02:08:48;2.10;99.90
33699;DHT22;20032;52.436;13.312;2024-01-15T02:11:13;2.10;99.90
33699;DHT22;20032;52.436;13.312;2024-01-15T02:13:39;2.10;99.90
33699;DHT22;20032;52.436;13.312;2024-01-15T02:16:05;2.20;99.90
33699;DHT22;20032;52.436;13.312;2024-01-15T02:18:43;2.20;99.90
33699;DHT22;20032;52.436;13.312;2024-01-15T02:21:09;2.20;99.90
33699;DHT22;20032;52.436;13.312;2024-01-15T02:23:34;2.20;99.90
33699;DHT22;20032;52.436;13.312;2024-01-15T02:26:01;2.20;99.90
33699;DHT22;20032;52.436;13.312;2024-01-15T02:28:26;2.20;99.90
33699;DHT22;20032;52.436;13.312;2024-01-15T02:30:52;2.20;99.90
33699;DHT22;20032;52.436;13.312;2024-01-15T02:33:17;2.20;99.90
33699;DHT22;20032;52.436;13.312;2024-01-15T02:35:43;2.10;99.90
33699;DHT22;20032;52.436;13.312;2024-01-15T02:38:08;2.10;99.90
33699;DHT22;20032;52.436;13.312;2024-01-15T02:40:34;2.10;99.90
33699;DHT22;20032;52.436;13.312;2024-01-15T02:43:00;2.10;99.90
33699;DHT22;20032;52.436;13.312;2024-01-15T02:45:27;2.10;99.90
33699;DHT22;20032;52.436;13.312;2024-01-15T02:47:53;2.10;99.90
33699;DHT22;20032;52.436;13.312;2024-01-15T02:50:18;2.10;99.90
33699;DHT22;20032;52.436;13.312;2024-01-15T02:52:44;2.10;99.90
33699;DHT22;20032;52.436;13.312;2024-01-15T02:55:09;2.10;99.90
33699;DHT22;20032;52.436;13.312;2024-01-15T02:57:35;2.10;99.90
33699;DHT22;20032;52.436;13.312;2024-01-15T03:00:00;2.10;99.90
33699;DHT22;20032;52.436;13.312;2024-01-15T03:02:26;2.10;99.90
33699;DHT22;20032;52.436;13.312;2024-01-15T03:04:51;2.00;99.90
33699;DHT22;20032;52.436;13.312;2024-01-15T03:07:17;2.10;99.90
33699;DHT22;20032;52.436;13.312;2024-01-15T03:09:43;2.10;99.90
33699;DHT22;20032;52.436;13.312;2024-01-15T03:12:08;2.10;99.90
33699;DHT22;20032;52.436;13.312;2024-01-15T03:14:35;2.00;99.90
33699;DHT22;20032;52.436;13.312;2024-01-15T03:17:01;2.10;99.90
33699;DHT22;20032;52.436;13.312;2024-01-15T03:19:26;2.10;99.90
33699;DHT22;20032;52.436;13.312;2024-01-15T03:21:52;2.10;99.90
33699;DHT22;20032;52.436;13.312;2024-01-15T03:24:18;2.10;99.90
33699;DHT22;20032;52.436;13.312;2024-01-15T03:26:43;2.10;99.90
33699;DHT22;20032;52.436;13.312;2024-01-15T03:29:09;2.10;99.90
33699;DHT22;20032;52.436;13.312;2024-01-15T03:31:34;2.10;99.90
33699;DHT22;20032;52.436;13.312;2024-01-15T03:34:00;2.10;99.90
33699;DHT22;20032;52.436;13.312;2024-01-15T03:36:25;2.10;99.90
33699;DHT22;20032;52.436;13.312;2024-01-15T03:38:51;2.10;99.90
33699;DHT22;20032;52.436;13.312;2024-01-15T03:41:16;2.10;99.90
33699;DHT22;20032;52.436;13.312;2024-01-15T03:43:42;2.10;99.90
33699;DHT22;20032;52.436;13.312;2024-01-15T03:46:07;2.20;99.90
33699;DHT22;20032;52.436;13.312;2024-01-15T03:48:33;2.20;99.90
33699;DHT22;20032;52.436;13.312;2024-01-15T03:50:58;2.20;99.90
33699;DHT22;20032;52.436;13.312;2024-01-15T03:53:24;2.20;99.90
33699;DHT22;20032;52.436;13.312;2024-01-15T03:55:50;2.20;99.90
33699;DHT22;20032;52.436;13.312;2024-01-15T03:58:15;2.20;99.90
33699;DHT22;20032;52.436;13.312;2024-01-15T04:00:42;2.20;99.90
33699;DHT22;20032;52.436;13.312;2024-01-15T04:03:07;2.20;99.90
33699;DHT22;20032;52.436;13.312;2024-01-15T04:05:33;2.20;99.90
33699;DHT22;20032;52.436;13.312;2024-01-15T04:07:58;2.20;99.90
33699;DHT22;20032;52.436;13.312;2024-01-15T04:10:24;2.30;99.90
33699;DHT22;20032;52.436;13.312;2024-01-15T04:12:49;2.30;99.90
33699;DHT22;20032;52.436;13.312;2024-01-15T04:15:15;2.30;99.90
33699;DHT22;20032;52.436;13.312;2024-01-15T04:17:40;2.30;99.90
33699;DHT22;20032;52.436;13.312;2024-01-15T04:20:07;2.30;99.90
33699;DHT22;20032;52.436;13.312;2024-01-15T04:22:34;2.40;99.90
33699;DHT22;20032;52.436;13.312;2024-01-15T04:24:59;2.30;99.90
33699;DHT22;20032;52.436;13.312;2024-01-15T04:27:24;2.30;99.90
33699;DHT22;20032;52.436;13.312;2024-01-15T04:29:50;2.30;99.90
33699;DHT22;20032;52.436;13.312;2024-01-15T04:32:15;2.30;99.90
33699;DHT22;20032;52.436;13.312;2024-01-15T04:34:41;2.30;99.90
33699;DHT22;20032;52.436;13.312;2024-01-15T04:37:06;2.30;99.90
33699;DHT22;20032;52.436;13.312;2024-01-15T04:39:32;2.30;99.90
33699;DHT22;20032;52.436;13.312;2024-01-15T04:41:58;2.30;99.90
33699;DHT22;20032;52.436;13.312;2024-01-15T04:44:23;2.40;99.90
33699;DHT22;20032;52.436;13.312;2024-01-15T04:46:48;2.40;99.90
33699;DHT22;20032;52.436;13.312;2024-01-15T04:49:14;2.40;99.90
33699;DHT22;20032;52.436;13.312;2024-01-15T04:51:39;2.50;99.90
33699;DHT22;20032;52.436;13.312;2024-01-15T04:54:05;2.40;99.90
33699;DHT22;20032;52.436;13.312;2024-01-15T04:56:30;2.40;99.90
33699;DHT22;20032;52.436;13.312;2024-01-15T04:58:56;2.30;99.90
33699;DHT22;20032;52.436;13.312;2024-01-15T05:01:22;2.30;99.90
33699;DHT22;20032;52.436;13.312;2024-01-15T05:03:49;2.30;99.90
33699;DHT22;20032;52.436;13.312;2024-01-15T05:06:15;2.40;99.90
33699;DHT22;20032;52.436;13.312;2024-01-15T05:08:40;2.30;99.90
33699;DHT22;20032;52.436;13.312;2024-01-15T05:11:06;2.30;99.90
33699;DHT22;20032;52.436;13.312;2024-01-15T05:13:31;2.30;99.90
33699;DHT22;20032;52.436;13.312;2024-01-15T05:15:57;2.20;99.90
33699;DHT22;20032;52.436;13.312;2024-01-15T05:18:22;2.20;99.90
33699;DHT22;20032;52.436;13.312;2024-01-15T05:20:48;2.20;99.90
33699;DHT22;20032;52.436;13.312;2024-01-15T05:23:13;2.20;99.90
33699;DHT22;20032;52.436;13.312;2024-01-15T05:25:39;2.20;99.90
33699;DHT22;20032;52.436;13.312;2024-01-15T05:28:05;2.20;99.90
33699;DHT22;20032;52.436;13.312;2024-01-15T05:30:31;2.30;99.90
33699;DHT22;20032;52.436;13.312;2024-01-15T05:32:56;2.30;99.90
33699;DHT22;20032;52.436;13.312;2024-01-15T05:35:22;2.40;99.90
33699;DHT22;20032;52.436;13.312;2024-01-15T05:37:48;2.40;99.90
33699;DHT22;20032;52.436;13.312;2024-01-15T05:40:14;2.40;99.90
33699;DHT22;20032;52.436;13.312;2024-01-15T05:42:39;2.40;99.90
33699;DHT22;20032;52.436;13.312;2024-01-15T05:45:06;2.50;99.90
33699;DHT22;20032;52.436;13.312;2024-01-15T05:47:31;2.50;99.90
33699;DHT22;20032;52.436;13.312;2024-01-15T05:49:57;2.50;99.90
33699;DHT22;20032;52.436;13.312;2024-01-15T05:52:24;2.50;99.90
33699;DHT22;20032;52.436;13.312;2024-01-15T05:54:50;2.50;99.90
33699;DHT22;20032;52.436;13.312;2024-01-15T05:57:16;2.50;99.90
33699;DHT22;20032;52.436;13.312;2024-01-15T05:59:42;2.40;99.90
33699;DHT22;20032;52.436;13.312;2024-01-15T06:02:08;2.40;99.90
33699;DHT22;20032;52.436;13.312;2024-01-15T06:04:33;2.30;99.90
33699;DHT22;20032;52.436;13.312;2024-01-15T06:06:58;2.40;99.90
33699;DHT22;20032;52.436;13.312;2024-01-15T06:09:24;2.40;99.90
33699;DHT22;20032;52.436;13.312;2024-01-15T06:11:50;2.40;99.90
33699;DHT22;20032;52.436;13.312;2024-01-15T06:14:15;2.40;99.90
33699;DHT22;20032;52.436;13.312;2024-01-15T06:16:41;2.40;99.90
33699;DHT22;20032;52.436;13.312;2024-01-15T06:19:06;2.40;99.90
33699;DHT22;20032;52.436;13.312;2024-01-15T06:21:33;2.40;99.90
33699;DHT22;20032;52.436;13.312;2024-01-15T06:23:58;2.50;99.90
33699;DHT22;20032;52.436;13.312;2024-01-15T06:26:24;2.50;99.90
33699;DHT22;20032;52.436;13.312;2024-01-15T06:28:51;2.50;99.90
33699;DHT22;20032;52.436;13.312;2024-01-15T06:31:17;2.50;99.90
33699;DHT22;20032;52.436;13.312;2024-01-15T06:33:43;2.40;99.90
33699;DHT22;20032;52.436;13.312;2024-01-15T06:36:08;2.40;99.90
33699;DHT22;20032;52.436;13.312;2024-01-15T06:38:34;2.40;99.90
33699;DHT22;20032;52.436;13.312;2024-01-15T06:41:00;2.40;99.90
33699;DHT22;20032;52.436;13.312;2024-01-15T06:43:25;2.40;99.90
33699;DHT22;20032;52.436;13.312;2024-01-15T06:45:51;2.40;99.90
33699;DHT22;20032;52.436;13.312;2024-01-15T06:48:16;2.40;99.90
33699;DHT22;20032;52.436;13.312;2024-01-15T06:50:43;2.40;99.90
33699;DHT22;20032;52.436;13.312;2024-01-15T06:53:08;2.40;99.90
33699;DHT22;20032;52.436;13.312;2024-01-15T06:55:34;2.40;99.90
33699;DHT22;20032;52.436;13.312;2024-01-15T06:57:59;2.40;99.90
33699;DHT22;20032;52.436;13.312;2024-01-15T07:00:25;2.50;99.90
33699;DHT22;20032;52.436;13.312;2024-01-15T07:02:51;2.50;99.90
33699;DHT22;20032;52.436;13.312;2024-01-15T07:05:18;2.50;99.90
33699;DHT22;20032;52.436;13.312;2024-01-15T07:07:43;2.50;99.90
33699;DHT22;20032;52.436;13.312;2024-01-15T07:10:09;2.50;99.90
33699;DHT22;20032;52.436;13.312;2024-01-15T07:12:35;2.60;99.90
33699;DHT22;20032;52.436;13.312;2024-01-15T07:15:01;2.60;99.90
33699;DHT22;20032;52.436;13.312;2024-01-15T07:17:27;2.60;99.90
33699;DHT22;20032;52.436;13.312;2024-01-15T07:19:53;2.60;99.90
33699;DHT22;20032;52.436;13.312;2024-01-15T07:22:18;2.70;99.90
33699;DHT22;20032;52.436;13.312;2024-01-15T07:24:45;2.70;99.90
33699;DHT22;20032;52.436;13.312;2024-01-15T07:27:10;2.70;99.90
33699;DHT22;20032;52.436;13.312;2024-01-15T07:29:36;2.70;99.90
33699;DHT22;20032;52.436;13.312;2024-01-15T07:32:03;2.70;99.90
33699;DHT22;20032;52.436;13.312;2024-01-15T07:34:28;2.80;99.90
33699;DHT22;20032;52.436;13.312;2024-01-15T07:36:54;2.80;99.90
33699;DHT22;20032;52.436;13.312;2024-01-15T07:39:19;2.80;99.90
33699;DHT22;20032;52.436;13.312;2024-01-15T07:41:45;2.80;99.90
33699;DHT22;20032;52.436;13.312;2024-01-15T07:44:10;2.70;99.90
33699;DHT22;20032;52.436;13.312;2024-01-15T07:46:36;2.70;99.90
33699;DHT22;20032;52.436;13.312;2024-01-15T07:49:01;2.70;99.90
33699;DHT22;20032;52.436;13.312;2024-01-15T07:51:27;2.70;99.90
33699;DHT22;20032;52.436;13.312;2024-01-15T07:53:53;2.80;99.90
33699;DHT22;20032;52.436;13.312;2024-01-15T07:56:20;2.80;99.90
33699;DHT22;20032;52.436;13.312;2024-01-15T07:58:46;2.80;99.90
33699;DHT22;20032;52.436;13.312;2024-01-15T08:01:12;2.80;99.90
33699;DHT22;20032;52.436;13.312;2024-01-15T08:03:37;2.70;99.90
33699;DHT22;20032;52.436;13.312;2024-01-15T08:06:03;2.70;99.90
33699;DHT22;20032;52.436;13.312;2024-01-15T08:08:29;2.70;99.90
33699;DHT22;20032;52.436;13.312;2024-01-15T08:10:54;2.70;99.90
33699;DHT22;20032;52.436;13.312;2024-01-15T08:13:20;2.70;99.90
33699;DHT22;20032;52.436;13.312;2024-01-15T08:15:46;2.70;99.90
33699;DHT22;20032;52.436;13.312;2024-01-15T08:18:12;2.70;99.90
33699;DHT22;20032;52.436;13.312;2024-01-15T08:20:37;2.70;99.90
33699;DHT22;20032;52.436;13.312;2024-01-15T08:23:03;2.70;99.90
33699;DHT22;20032;52.436;13.312;2024-01-15T08:25:29;2.80;99.90
33699;DHT22;20032;52.436;13.312;2024-01-15T08:27:56;2.70;99.90
33699;DHT22;20032;52.436;13.312;2024-01-15T08:30:21;2.70;99.90
33699;DHT22;20032;52.436;13.312;2024-01-15T08:32:50;2.70;99.90
33699;DHT22;20032;52.436;13.312;2024-01-15T08:35:15;2.70;99.90
33699;DHT22;20032;52.436;13.312;2024-01-15T08:37:41;2.70;99.90
33699;DHT22;20032;52.436;13.312;2024-01-15T08:40:07;2.70;99.90
33699;DHT22;20032;52.436;13.312;2024-01-15T08:42:32;2.80;99.90
33699;DHT22;20032;52.436;13.312;2024-01-15T08:44:58;2.90;99.90
33699;DHT22;20032;52.436;13.312;2024-01-15T08:47:23;2.90;99.90
33699;DHT22;20032;52.436;13.312;2024-01-15T08:49:50;2.90;99.90
33699;DHT22;20032;52.436;13.312;2024-01-15T08:52:15;2.90;99.90
33699;DHT22;20032;52.436;13.312;2024-01-15T08:54:41;2.90;99.90
33699;DHT22;20032;52.436;13.312;2024-01-15T08:57:06;2.90;99.90
33699;DHT22;20032;52.436;13.312;2024-01-15T08:59:32;2.90;99.90
33699;DHT22;20032;52.436;13.312;2024-01-15T09:01:57;2.90;99.90
33699;DHT22;20032;52.436;13.312;2024-01-15T09:04:23;2.90;99.90
33699;DHT22;20032;52.436;13.312;2024-01-15T09:06:49;2.90;99.90
33699;DHT22;20032;52.436;13.312;2024-01-15T09:09:15;2.80;99.90
33699;DHT22;20032;52.436;13.312;2024-01-15T09:11:41;2.90;99.90
33699;DHT22;20032;52.436;13.312;2024-01-15T09:14:08;2.80;99.90
33699;DHT22;20032;52.436;13.312;2024-01-15T09:16:35;2.80;99.90
33699;DHT22;20032;52.436;13.312;2024-01-15T09:19:00;2.80;99.90
33699;DHT22;20032;52.436;13.312;2024-01-15T09:21:26;2.90;99.90
33699;DHT22;20032;52.436;13.312;2024-01-15T09:23:51;2.80;99.90
33699;DHT22;20032;52.436;13.312;2024-01-15T09:26:17;2.80;99.90
33699;DHT22;20032;52.436;13.312;2024-01-15T09:28:43;2.80;99.90
33699;DHT22;20032;52.436;13.312;2024-01-15T09:31:08;2.80;99.90
33699;DHT22;20032;52.436;13.312;2024-01-15T09:33:34;2.80;99.90
33699;DHT22;20032;52.436;13.312;2024-01-15T09:36:02;2.90;99.90
33699;DHT22;20032;52.436;13.312;2024-01-15T09:38:29;2.90;99.90
33699;DHT22;20032;52.436;13.312;2024-01-15T09:40:55;2.90;99.90
33699;DHT22;20032;52.436;13.312;2024-01-15T09:43:21;2.90;99.90
33699;DHT22;20032;52.436;13.312;2024-01-15T09:45:47;2.90;99.90
33699;DHT22;20032;52.436;13.312;2024-01-15T09:48:12;2.90;99.90
33699;DHT22;20032;52.436;13.312;2024-01-15T09:50:38;2.90;99.90
33699;DHT22;20032;52.436;13.312;2024-01-15T09:53:05;2.90;99.90
33699;DHT22;20032;52.436;13.312;2024-01-15T09:55:30;2.90;99.90
33699;DHT22;20032;52.436;13.312;2024-01-15T09:58:00;3.00;99.90
33699;DHT22;20032;52.436;13.312;2024-01-15T10:00:28;3.00;99.90
33699;DHT22;20032;52.436;13.312;2024-01-15T10:02:56;3.00;99.90
33699;DHT22;20032;52.436;13.312;2024-01-15T10:05:21;3.00;99.90
33699;DHT22;20032;52.436;13.312;2024-01-15T10:07:47;3.00;99.90
33699;DHT22;20032;52.436;13.312;2024-01-15T10:10:15;3.00;99.90
33699;DHT22;20032;52.436;13.312;2024-01-15T10:12:42;3.10;99.90
33699;DHT22;20032;52.436;13.312;2024-01-15T10:15:10;3.10;99.90
33699;DHT22;20032;52.436;13.312;2024-01-15T10:17:38;3.10;99.90
33699;DHT22;20032;52.436;13.312;2024-01-15T10:20:08;3.10;99.90
33699;DHT22;20032;52.436;13.312;2024-01-15T10:22:35;3.10;99.90
33699;DHT22;20032;52.436;13.312;2024-01-15T10:25:03;3.10;99.90
33699;DHT22;20032;52.436;13.312;2024-01-15T10:27:29;3.10;99.90
33699;DHT22;20032;52.436;13.312;2024-01-15T10:29:59;3.10;99.90
33699;DHT22;20032;52.436;13.312;2024-01-15T10:32:25;3.20;99.90
33699;DHT22;20032;52.436;13.312;2024-01-15T10:34:52;3.10;99.90
33699;DHT22;20032;52.436;13.312;2024-01-15T10:37:18;3.20;99.90
33699;DHT22;20032;52.436;13.312;2024-01-15T10:39:43;3.20;99.90
33699;DHT22;20032;52.436;13.312;2024-01-15T10:42:09;3.10;99.90
33699;DHT22;20032;52.436;13.312;2024-01-15T10:44:35;3.20;99.90
33699;DHT22;20032;52.436;13.312;2024-01-15T10:47:00;3.20;99.90
33699;DHT22;20032;52.436;13.312;2024-01-15T10:49:27;3.20;99.90
33699;DHT22;20032;52.436;13.312;2024-01-15T10:51:54;3.20;99.90
33699;DHT22;20032;52.436;13.312;2024-01-15T10:54:21;3.20;99.90
33699;DHT22;20032;52.436;13.312;2024-01-15T10:56:49;3.20;99.90
33699;DHT22;20032;52.436;13.312;2024-01-15T10:59:15;3.30;99.90
33699;DHT22;20032;52.436;13.312;2024-01-15T11:04:07;3.40;99.90
33699;DHT22;20032;52.436;13.312;2024-01-15T11:06:51;3.40;99.90
33699;DHT22;20032;52.436;13.312;2024-01-15T11:09:18;3.40;99.90
33699;DHT22;20032;52.436;13.312;2024-01-15T11:11:45;3.40;99.90
33699;DHT22;20032;52.436;13.312;2024-01-15T11:14:34;3.50;99.90
33699;DHT22;20032;52.436;13.312;2024-01-15T11:16:59;3.60;99.90
33699;DHT22;20032;52.436;13.312;2024-01-15T11:19:25;3.60;99.90
33699;DHT22;20032;52.436;13.312;2024-01-15T11:21:51;3.50;99.90
33699;DHT22;20032;52.436;13.312;2024-01-15T11:24:38;3.40;99.90
33699;DHT22;20032;52.436;13.312;2024-01-15T11:27:06;3.30;99.90
33699;DHT22;20032;52.436;13.312;2024-01-15T11:29:36;3.30;99.90
33699;DHT22;20032;52.436;13.312;2024-01-15T11:32:10;3.30;99.90
33699;DHT22;20032;52.436;13.312;2024-01-15T11:34:52;3.30;99.90
33699;DHT22;20032;52.436;13.312;2024-01-15T11:37:19;3.10;99.90
33699;DHT22;20032;52.436;13.312;2024-01-15T11:39:45;3.00;99.90
33699;DHT22;20032;52.436;13.312;2024-01-15T11:42:14;3.00;99.90
33699;DHT22;20032;52.436;13.312;2024-01-15T11:44:40;2.90;99.90
33699;DHT22;20032;52.436;13.312;2024-01-15T11:47:08;2.90;99.90
33699;DHT22;20032;52.436;13.312;2024-01-15T11:50:01;2.90;99.90
33699;DHT22;20032;52.436;13.312;2024-01-15T11:52:36;2.90;99.90
33699;DHT22;20032;52.436;13.312;2024-01-15T11:55:22;2.90;99.90
33699;DHT22;20032;52.436;13.312;2024-01-15T11:57:53;2.90;99.90
33699;DHT22;20032;52.436;13.312;2024-01-15T12:00:20;3.00;99.90
33699;DHT22;20032;52.436;13.312;2024-01-15T12:02:47;3.00;99.90
33699;DHT22;20032;52.436;13.312;2024-01-15T12:05:16;2.90;99.90
33699;DHT22;20032;52.436;13.312;2024-01-15T12:07:43;2.90;99.90
33699;DHT22;20032;52.436;13.312;2024-01-15T12:10:10;2.90;99.90
33699;DHT22;20032;52.436;13.312;2024-01-15T12:15:10;2.90;99.90
33699;DHT22;20032;52.436;13.312;2024-01-15T12:17:35;2.90;99.90
33699;DHT22;20032;52.436;13.312;2024-01-15T12:20:03;2.90;99.90
33699;DHT22;20032;52.436;13.312;2024-01-15T12:22:29;2.90;99.90
33699;DHT22;20032;52.436;13.312;2024-01-15T12:24:54;2.90;99.90
33699;DHT22;20032;52.436;13.312;2024-01-15T12:27:20;2.90;99.90
33699;DHT22;20032;52.436;13.312;2024-01-15T12:29:46;2.90;99.90
33699;DHT22;20032;52.436;13.312;2024-01-15T12:32:12;2.90;99.90
33699;DHT22;20032;52.436;13.312;2024-01-15T12:34:38;2.90;99.90
33699;DHT22;20032;52.436;13.312;2024-01-15T12:37:04;2.90;99.90
33699;DHT22;20032;52.436;13.312;2024-01-15T12:39:29;2.90;99.90
33699;DHT22;20032;52.436;13.312;2024-01-15T12:41:55;2.80;99.90
33699;DHT22;20032;52.436;13.312;2024-01-15T12:44:20;2.70;99.90
33699;DHT22;20032;52.436;13.312;2024-01-15T12:46:46;2.80;99.90
33699;DHT22;20032;52.436;13.312;2024-01-15T12:49:13;2.80;99.90
33699;DHT22;20032;52.436;13.312;2024-01-15T12:51:38;2.70;99.90
33699;DHT22;20032;52.436;13.312;2024-01-15T12:54:04;2.60;99.90
33699;DHT22;20032;52.436;13.312;2024-01-15T12:56:30;2.60;99.90
33699;DHT22;20032;52.436;13.312;2024-01-15T12:58:55;2.50;99.90
33699;DHT22;20032;52.436;13.312;2024-01-15T13:01:21;2.50;99.90
33699;DHT22;20032;52.436;13.312;2024-01-15T13:03:47;2.60;99.90
33699;DHT22;20032;52.436;13.312;2024-01-15T13:06:12;2.60;99.90
33699;DHT22;20032;52.436;13.312;2024-01-15T13:08:38;2.60;99.90
33699;DHT22;20032;52.436;13.312;2024-01-15T13:11:04;2.70;99.90
33699;DHT22;20032;52.436;13.312;2024-01-15T13:13:31;2.70;99.90
33699;DHT22;20032;52.436;13.312;2024-01-15T13:16:00;2.70;99.90
33699;DHT22;20032;52.436;13.312;2024-01-15T13:18:26;2.70;99.90
33699;DHT22;20032;52.436;13.312;2024-01-15T13:20:52;2.80;99.90
33699;DHT22;20032;52.436;13.312;2024-01-15T13:23:19;2.80;99.90
33699;DHT22;20032;52.436;13.312;2024-01-15T13:25:46;2.80;99.90
33699;DHT22;20032;52.436;13.312;2024-01-15T13:28:13;2.80;99.90
33699;DHT22;20032;52.436;13.312;2024-01-15T13:30:40;2.90;99.90
33699;DHT22;20032;52.436;13.312;2024-01-15T13:33:06;2.80;99.90
33699;DHT22;20032;52.436;13.312;2024-01-15T13:35:33;2.70;99.90
33699;DHT22;20032;52.436;13.312;2024-01-15T13:38:01;2.80;99.90
33699;DHT22;20032;52.436;13.312;2024-01-15T13:40:26;2.80;99.90
33699;DHT22;20032;52.436;13.312;2024-01-15T13:42:52;2.80;99.90
33699;DHT22;20032;52.436;13.312;2024-01-15T13:45:19;2.80;99.90
33699;DHT22;20032;52.436;13.312;2024-01-15T13:47:46;2.80;99.90
33699;DHT22;20032;52.436;13.312;2024-01-15T13:50:12;2.70;99.90
33699;DHT22;20032;52.436;13.312;2024-01-15T13:52:38;2.70;99.90
33699;DHT22;20032;52.436;13.312;2024-01-15T13:55:03;2.70;99.90
33699;DHT22;20032;52.436;13.312;2024-01-15T13:57:29;2.70;99.90
33699;DHT22;20032;52.436;13.312;2024-01-15T13:59:55;2.70;99.90
33699;DHT22;20032;52.436;13.312;2024-01-15T14:02:20;2.70;99.90
33699;DHT22;20032;52.436;13.312;2024-01-15T14:04:47;2.70;99.90
33699;DHT22;20032;52.436;13.312;2024-01-15T14:07:12;2.60;99.90
33699;DHT22;20032;52.436;13.312;2024-01-15T14:09:38;2.60;99.90
33699;DHT22;20032;52.436;13.312;2024-01-15T14:12:05;2.70;99.90
33699;DHT22;20032;52.436;13.312;2024-01-15T14:14:31;2.70;99.90
33699;DHT22;20032;52.436;13.312;2024-01-15T14:16:56;2.70;99.90
33699;DHT22;20032;52.436;13.312;2024-01-15T14:19:23;2.60;99.90
33699;DHT22;20032;52.436;13.312;2024-01-15T14:21:48;2.60;99.90
33699;DHT22;20032;52.436;13.312;2024-01-15T14:24:14;2.60;99.90
33699;DHT22;20032;52.436;13.312;2024-01-15T14:26:39;2.60;99.90
33699;DHT22;20032;52.436;13.312;2024-01-15T14:29:06;2.50;99.90
33699;DHT22;20032;52.436;13.312;2024-01-15T14:31:31;2.60;99.90
33699;DHT22;20032;52.436;13.312;2024-01-15T14:33:58;2.60;99.90
33699;DHT22;20032;52.436;13.312;2024-01-15T14:36:24;2.60;99.90
33699;DHT22;20032;52.436;13.312;2024-01-15T14:38:50;2.50;99.90
33699;DHT22;20032;52.436;13.312;2024-01-15T14:41:16;2.50;99.90
33699;DHT22;20032;52.436;13.312;2024-01-15T14:43:42;2.50;99.90
33699;DHT22;20032;52.436;13.312;2024-01-15T14:46:07;2.50;99.90
33699;DHT22;20032;52.436;13.312;2024-01-15T14:48:33;2.50;99.90
33699;DHT22;20032;52.436;13.312;2024-01-15T14:50:58;2.50;99.90
33699;DHT22;20032;52.436;13.312;2024-01-15T14:53:24;2.50;99.90
33699;DHT22;20032;52.436;13.312;2024-01-15T14:55:49;2.50;99.90
33699;DHT22;20032;52.436;13.312;2024-01-15T14:58:15;2.50;99.90
33699;DHT22;20032;52.436;13.312;2024-01-15T15:00:41;2.50;99.90
33699;DHT22;20032;52.436;13.312;2024-01-15T15:03:06;2.50;99.90
33699;DHT22;20032;52.436;13.312;2024-01-15T15:05:33;2.50;99.90
33699;DHT22;20032;52.436;13.312;2024-01-15T15:07:59;2.50;99.90
33699;DHT22;20032;52.436;13.312;2024-01-15T15:10:25;2.50;99.90
33699;DHT22;20032;52.436;13.312;2024-01-15T15:12:53;2.60;99.90
33699;DHT22;20032;52.436;13.312;2024-01-15T15:15:18;2.60;99.90
33699;DHT22;20032;52.436;13.312;2024-01-15T15:17:44;2.60;99.90
33699;DHT22;20032;52.436;13.312;2024-01-15T15:20:10;2.60;99.90
33699;DHT22;20032;52.436;13.312;2024-01-15T15:22:36;2.60;99.90
33699;DHT22;20032;52.436;13.312;2024-01-15T15:25:03;2.60;99.90
33699;DHT22;20032;52.436;13.312;2024-01-15T15:27:35;2.60;99.90
33699;DHT22;20032;52.436;13.312;2024-01-15T15:30:00;2.60;99.90